sensor_id;sensor_type;location;lat;lon;timestamp;P1;durP1;ratioP1;P2;durP2;ratioP2
72105;SDS011;59975;47.646;18.318;2023-04-24T00:00:05;7.90;;;4.80;;
72105;SDS011;59975;47.646;18.318;2023-04-24T00:02:31;7.95;;;4.47;;
72105;SDS011;59975;47.646;18.318;2023-04-24T00:05:03;9.57;;;5.05;;
72105;SDS011;59975;47.646;18.318;2023-04-24T00:07:32;8.63;;;4.80;;
72105;SDS011;59975;47.646;18.318;2023-04-24T00:09:58;11.10;;;5.07;;
72105;SDS011;59975;47.646;18.318;2023-04-24T00:12:24;7.63;;;4.53;;
72105;SDS011;59975;47.646;18.318;2023-04-24T00:14:50;7.33;;;4.27;;
72105;SDS011;59975;47.646;18.318;2023-04-24T00:17:16;11.85;;;4.45;;
72105;SDS011;59975;47.646;18.318;2023-04-24T00:19:45;8.03;;;4.20;;
72105;SDS011;59975;47.646;18.318;2023-04-24T00:22:11;8.85;;;4.28;;
72105;SDS011;59975;47.646;18.318;2023-04-24T00:24:38;6.25;;;4.00;;
72105;SDS011;59975;47.646;18.318;2023-04-24T00:27:04;8.02;;;4.18;;
72105;SDS011;59975;47.646;18.318;2023-04-24T00:29:29;7.47;;;4.17;;
72105;SDS011;59975;47.646;18.318;2023-04-24T00:31:55;8.53;;;4.63;;
72105;SDS011;59975;47.646;18.318;2023-04-24T00:34:21;9.13;;;4.17;;
72105;SDS011;59975;47.646;18.318;2023-04-24T00:36:46;8.40;;;4.10;;
72105;SDS011;59975;47.646;18.318;2023-04-24T00:39:14;8.00;;;4.30;;
72105;SDS011;59975;47.646;18.318;2023-04-24T00:41:39;8.02;;;4.20;;
72105;SDS011;59975;47.646;18.318;2023-04-24T00:44:05;8.17;;;3.90;;
72105;SDS011;59975;47.646;18.318;2023-04-24T00:46:31;10.60;;;4.07;;
72105;SDS011;59975;47.646;18.318;2023-04-24T00:48:57;6.47;;;3.83;;
72105;SDS011;59975;47.646;18.318;2023-04-24T00:51:24;6.03;;;3.67;;
72105;SDS011;59975;47.646;18.318;2023-04-24T00:53:49;9.00;;;3.73;;
72105;SDS011;59975;47.646;18.318;2023-04-24T00:56:16;7.90;;;3.90;;
72105;SDS011;59975;47.646;18.318;2023-04-24T00:58:43;8.43;;;4.15;;
72105;SDS011;59975;47.646;18.318;2023-04-24T01:01:09;9.40;;;4.22;;
72105;SDS011;59975;47.646;18.318;2023-04-24T01:03:36;5.93;;;3.88;;
72105;SDS011;59975;47.646;18.318;2023-04-24T01:06:03;6.77;;;3.37;;
72105;SDS011;59975;47.646;18.318;2023-04-24T01:08:30;8.85;;;3.83;;
72105;SDS011;59975;47.646;18.318;2023-04-24T01:10:56;10.85;;;4.05;;
72105;SDS011;59975;47.646;18.318;2023-04-24T01:13:23;6.53;;;3.25;;
72105;SDS011;59975;47.646;18.318;2023-04-24T01:15:48;8.93;;;3.57;;
72105;SDS011;59975;47.646;18.318;2023-04-24T01:18:14;7.43;;;4.55;;
72105;SDS011;59975;47.646;18.318;2023-04-24T01:20:46;7.47;;;4.05;;
72105;SDS011;59975;47.646;18.318;2023-04-24T01:23:16;5.65;;;3.58;;
72105;SDS011;59975;47.646;18.318;2023-04-24T01:25:42;8.20;;;3.50;;
72105;SDS011;59975;47.646;18.318;2023-04-24T01:28:07;7.10;;;3.45;;
72105;SDS011;59975;47.646;18.318;2023-04-24T01:30:33;6.93;;;3.40;;
72105;SDS011;59975;47.646;18.318;2023-04-24T01:32:59;6.38;;;3.33;;
72105;SDS011;59975;47.646;18.318;2023-04-24T01:35:25;6.37;;;3.40;;
72105;SDS011;59975;47.646;18.318;2023-04-24T01:37:51;7.53;;;3.40;;
72105;SDS011;59975;47.646;18.318;2023-04-24T01:40:16;7.63;;;3.70;;
72105;SDS011;59975;47.646;18.318;2023-04-24T01:42:42;6.57;;;3.30;;
72105;SDS011;59975;47.646;18.318;2023-04-24T01:45:07;5.83;;;3.27;;
72105;SDS011;59975;47.646;18.318;2023-04-24T01:47:36;8.55;;;3.92;;
72105;SDS011;59975;47.646;18.318;2023-04-24T01:50:02;7.07;;;3.92;;
72105;SDS011;59975;47.646;18.318;2023-04-24T01:52:28;5.40;;;3.73;;
72105;SDS011;59975;47.646;18.318;2023-04-24T01:54:56;7.82;;;3.80;;
72105;SDS011;59975;47.646;18.318;2023-04-24T01:57:21;7.63;;;4.07;;
72105;SDS011;59975;47.646;18.318;2023-04-24T01:59:47;7.87;;;3.60;;
72105;SDS011;59975;47.646;18.318;2023-04-24T02:02:13;7.77;;;4.17;;
72105;SDS011;59975;47.646;18.318;2023-04-24T02:04:39;7.37;;;3.53;;
72105;SDS011;59975;47.646;18.318;2023-04-24T02:07:04;8.73;;;3.92;;
72105;SDS011;59975;47.646;18.318;2023-04-24T02:09:30;6.03;;;4.00;;
72105;SDS011;59975;47.646;18.318;2023-04-24T02:11:55;7.97;;;4.03;;
72105;SDS011;59975;47.646;18.318;2023-04-24T02:14:21;9.98;;;4.07;;
72105;SDS011;59975;47.646;18.318;2023-04-24T02:16:46;5.60;;;4.00;;
72105;SDS011;59975;47.646;18.318;2023-04-24T02:19:12;8.60;;;4.80;;
72105;SDS011;59975;47.646;18.318;2023-04-24T02:21:37;6.93;;;4.28;;
72105;SDS011;59975;47.646;18.318;2023-04-24T02:24:03;8.20;;;4.10;;
72105;SDS011;59975;47.646;18.318;2023-04-24T02:26:29;6.93;;;3.63;;
72105;SDS011;59975;47.646;18.318;2023-04-24T02:28:56;6.80;;;3.72;;
72105;SDS011;59975;47.646;18.318;2023-04-24T02:31:22;8.20;;;3.72;;
72105;SDS011;59975;47.646;18.318;2023-04-24T02:33:48;7.10;;;4.03;;
72105;SDS011;59975;47.646;18.318;2023-04-24T02:36:14;6.03;;;3.97;;
72105;SDS011;59975;47.646;18.318;2023-04-24T02:38:39;6.90;;;3.90;;
72105;SDS011;59975;47.646;18.318;2023-04-24T02:41:05;7.27;;;3.93;;
72105;SDS011;59975;47.646;18.318;2023-04-24T02:43:31;7.05;;;4.55;;
72105;SDS011;59975;47.646;18.318;2023-04-24T02:45:58;7.88;;;4.53;;
72105;SDS011;59975;47.646;18.318;2023-04-24T02:48:23;5.88;;;3.78;;
72105;SDS011;59975;47.646;18.318;2023-04-24T02:50:49;6.30;;;4.30;;
72105;SDS011;59975;47.646;18.318;2023-04-24T02:53:15;7.43;;;4.53;;
72105;SDS011;59975;47.646;18.318;2023-04-24T02:55:41;7.00;;;4.20;;
72105;SDS011;59975;47.646;18.318;2023-04-24T02:58:06;7.28;;;4.20;;
72105;SDS011;59975;47.646;18.318;2023-04-24T03:00:32;7.03;;;4.03;;
72105;SDS011;59975;47.646;18.318;2023-04-24T03:02:58;8.23;;;4.43;;
72105;SDS011;59975;47.646;18.318;2023-04-24T03:05:23;6.67;;;3.77;;
72105;SDS011;59975;47.646;18.318;2023-04-24T03:07:49;8.37;;;4.33;;
72105;SDS011;59975;47.646;18.318;2023-04-24T03:10:15;8.52;;;4.78;;
72105;SDS011;59975;47.646;18.318;2023-04-24T03:12:40;6.00;;;3.83;;
72105;SDS011;59975;47.646;18.318;2023-04-24T03:15:06;6.43;;;4.03;;
72105;SDS011;59975;47.646;18.318;2023-04-24T03:17:32;6.43;;;3.70;;
72105;SDS011;59975;47.646;18.318;2023-04-24T03:19:57;7.03;;;4.70;;
72105;SDS011;59975;47.646;18.318;2023-04-24T03:22:23;11.10;;;4.35;;
72105;SDS011;59975;47.646;18.318;2023-04-24T03:24:48;9.50;;;3.87;;
72105;SDS011;59975;47.646;18.318;2023-04-24T03:27:14;9.33;;;4.03;;
72105;SDS011;59975;47.646;18.318;2023-04-24T03:29:39;5.40;;;4.30;;
72105;SDS011;59975;47.646;18.318;2023-04-24T03:32:05;7.27;;;4.10;;
72105;SDS011;59975;47.646;18.318;2023-04-24T03:34:30;12.70;;;4.67;;
72105;SDS011;59975;47.646;18.318;2023-04-24T03:36:56;8.10;;;3.70;;
72105;SDS011;59975;47.646;18.318;2023-04-24T03:39:21;9.18;;;4.55;;
72105;SDS011;59975;47.646;18.318;2023-04-24T03:41:47;9.43;;;4.03;;
72105;SDS011;59975;47.646;18.318;2023-04-24T03:44:12;10.03;;;4.43;;
72105;SDS011;59975;47.646;18.318;2023-04-24T03:46:38;5.90;;;4.28;;
72105;SDS011;59975;47.646;18.318;2023-04-24T03:49:03;12.07;;;4.63;;
72105;SDS011;59975;47.646;18.318;2023-04-24T03:51:29;7.73;;;4.43;;
72105;SDS011;59975;47.646;18.318;2023-04-24T03:53:55;7.35;;;4.18;;
72105;SDS011;59975;47.646;18.318;2023-04-24T03:56:21;11.30;;;4.50;;
72105;SDS011;59975;47.646;18.318;2023-04-24T03:58:46;8.13;;;4.32;;
72105;SDS011;59975;47.646;18.318;2023-04-24T04:01:12;7.90;;;4.40;;
72105;SDS011;59975;47.646;18.318;2023-04-24T04:03:38;10.15;;;4.32;;
72105;SDS011;59975;47.646;18.318;2023-04-24T04:06:04;8.77;;;4.00;;
72105;SDS011;59975;47.646;18.318;2023-04-24T04:08:29;12.00;;;4.43;;
72105;SDS011;59975;47.646;18.318;2023-04-24T04:10:55;8.30;;;4.53;;
72105;SDS011;59975;47.646;18.318;2023-04-24T04:13:20;6.67;;;4.10;;
72105;SDS011;59975;47.646;18.318;2023-04-24T04:15:46;8.60;;;4.00;;
72105;SDS011;59975;47.646;18.318;2023-04-24T04:18:12;8.60;;;4.80;;
72105;SDS011;59975;47.646;18.318;2023-04-24T04:20:37;8.90;;;4.40;;
72105;SDS011;59975;47.646;18.318;2023-04-24T04:23:03;12.27;;;4.97;;
72105;SDS011;59975;47.646;18.318;2023-04-24T04:25:28;9.20;;;4.83;;
72105;SDS011;59975;47.646;18.318;2023-04-24T04:27:54;6.17;;;4.23;;
72105;SDS011;59975;47.646;18.318;2023-04-24T04:30:20;10.35;;;4.95;;
72105;SDS011;59975;47.646;18.318;2023-04-24T04:32:46;10.30;;;4.70;;
72105;SDS011;59975;47.646;18.318;2023-04-24T04:35:11;7.07;;;4.23;;
72105;SDS011;59975;47.646;18.318;2023-04-24T04:37:37;9.35;;;4.70;;
72105;SDS011;59975;47.646;18.318;2023-04-24T04:40:03;7.00;;;4.40;;
72105;SDS011;59975;47.646;18.318;2023-04-24T04:42:32;8.52;;;4.40;;
72105;SDS011;59975;47.646;18.318;2023-04-24T04:45:05;9.68;;;4.47;;
72105;SDS011;59975;47.646;18.318;2023-04-24T04:47:33;9.98;;;4.60;;
72105;SDS011;59975;47.646;18.318;2023-04-24T04:49:59;10.20;;;4.50;;
72105;SDS011;59975;47.646;18.318;2023-04-24T04:52:25;9.07;;;4.40;;
72105;SDS011;59975;47.646;18.318;2023-04-24T04:54:51;7.88;;;4.47;;
72105;SDS011;59975;47.646;18.318;2023-04-24T04:57:17;8.60;;;4.60;;
72105;SDS011;59975;47.646;18.318;2023-04-24T04:59:42;8.43;;;4.95;;
72105;SDS011;59975;47.646;18.318;2023-04-24T05:02:08;8.90;;;5.00;;
72105;SDS011;59975;47.646;18.318;2023-04-24T05:04:34;8.50;;;4.60;;
72105;SDS011;59975;47.646;18.318;2023-04-24T05:06:59;8.93;;;4.83;;
72105;SDS011;59975;47.646;18.318;2023-04-24T05:09:25;12.15;;;4.93;;
72105;SDS011;59975;47.646;18.318;2023-04-24T05:11:54;7.22;;;4.25;;
72105;SDS011;59975;47.646;18.318;2023-04-24T05:14:21;8.37;;;4.43;;
72105;SDS011;59975;47.646;18.318;2023-04-24T05:16:47;10.93;;;4.70;;
72105;SDS011;59975;47.646;18.318;2023-04-24T05:19:12;10.45;;;4.50;;
72105;SDS011;59975;47.646;18.318;2023-04-24T05:21:39;11.27;;;5.00;;
72105;SDS011;59975;47.646;18.318;2023-04-24T05:24:05;7.63;;;4.38;;
72105;SDS011;59975;47.646;18.318;2023-04-24T05:26:31;14.27;;;4.40;;
72105;SDS011;59975;47.646;18.318;2023-04-24T05:28:56;12.07;;;4.53;;
72105;SDS011;59975;47.646;18.318;2023-04-24T05:31:22;10.63;;;4.80;;
72105;SDS011;59975;47.646;18.318;2023-04-24T05:33:48;10.83;;;5.10;;
72105;SDS011;59975;47.646;18.318;2023-04-24T05:36:13;11.48;;;5.00;;
72105;SDS011;59975;47.646;18.318;2023-04-24T05:38:40;12.77;;;4.93;;
72105;SDS011;59975;47.646;18.318;2023-04-24T05:41:05;12.68;;;5.60;;
72105;SDS011;59975;47.646;18.318;2023-04-24T05:43:33;14.60;;;5.23;;
72105;SDS011;59975;47.646;18.318;2023-04-24T05:45:59;7.00;;;5.28;;
72105;SDS011;59975;47.646;18.318;2023-04-24T05:48:36;13.38;;;5.82;;
72105;SDS011;59975;47.646;18.318;2023-04-24T05:51:14;10.25;;;5.70;;
72105;SDS011;59975;47.646;18.318;2023-04-24T05:53:56;10.53;;;6.07;;
72105;SDS011;59975;47.646;18.318;2023-04-24T06:06:28;10.00;;;5.72;;
72105;SDS011;59975;47.646;18.318;2023-04-24T06:08:57;10.13;;;5.33;;
72105;SDS011;59975;47.646;18.318;2023-04-24T06:11:52;15.68;;;8.60;;
72105;SDS011;59975;47.646;18.318;2023-04-24T06:14:18;10.00;;;5.35;;
72105;SDS011;59975;47.646;18.318;2023-04-24T06:16:53;6.57;;;5.05;;
72105;SDS011;59975;47.646;18.318;2023-04-24T06:19:27;11.63;;;5.27;;
72105;SDS011;59975;47.646;18.318;2023-04-24T06:21:56;8.85;;;5.00;;
72105;SDS011;59975;47.646;18.318;2023-04-24T06:24:26;9.40;;;6.10;;
72105;SDS011;59975;47.646;18.318;2023-04-24T06:26:53;16.42;;;9.63;;
72105;SDS011;59975;47.646;18.318;2023-04-24T06:29:22;12.85;;;6.65;;
72105;SDS011;59975;47.646;18.318;2023-04-24T06:32:10;10.50;;;5.13;;
72105;SDS011;59975;47.646;18.318;2023-04-24T06:34:46;11.27;;;4.82;;
72105;SDS011;59975;47.646;18.318;2023-04-24T06:37:29;8.65;;;5.40;;
72105;SDS011;59975;47.646;18.318;2023-04-24T06:40:20;12.35;;;5.95;;
72105;SDS011;59975;47.646;18.318;2023-04-24T06:46:32;14.20;;;5.73;;
72105;SDS011;59975;47.646;18.318;2023-04-24T06:49:04;13.13;;;5.50;;
72105;SDS011;59975;47.646;18.318;2023-04-24T06:54:32;10.77;;;5.25;;
72105;SDS011;59975;47.646;18.318;2023-04-24T06:57:10;9.18;;;5.82;;
72105;SDS011;59975;47.646;18.318;2023-04-24T07:03:09;8.55;;;5.85;;
72105;SDS011;59975;47.646;18.318;2023-04-24T07:06:18;8.88;;;5.35;;
72105;SDS011;59975;47.646;18.318;2023-04-24T07:09:01;10.90;;;5.50;;
72105;SDS011;59975;47.646;18.318;2023-04-24T07:11:31;8.57;;;4.75;;
72105;SDS011;59975;47.646;18.318;2023-04-24T07:13:59;7.77;;;4.60;;
72105;SDS011;59975;47.646;18.318;2023-04-24T07:17:04;16.30;;;5.53;;
72105;SDS011;59975;47.646;18.318;2023-04-24T07:26:26;7.88;;;4.68;;
72105;SDS011;59975;47.646;18.318;2023-04-24T07:29:14;7.13;;;3.90;;
72105;SDS011;59975;47.646;18.318;2023-04-24T07:35:41;7.80;;;4.30;;
72105;SDS011;59975;47.646;18.318;2023-04-24T07:38:17;6.60;;;4.18;;
72105;SDS011;59975;47.646;18.318;2023-04-24T07:40:46;10.20;;;3.95;;
72105;SDS011;59975;47.646;18.318;2023-04-24T07:43:11;5.07;;;3.80;;
72105;SDS011;59975;47.646;18.318;2023-04-24T07:45:37;6.07;;;4.13;;
72105;SDS011;59975;47.646;18.318;2023-04-24T07:48:04;6.10;;;3.20;;
72105;SDS011;59975;47.646;18.318;2023-04-24T07:50:30;5.85;;;3.72;;
72105;SDS011;59975;47.646;18.318;2023-04-24T07:53:06;7.75;;;3.67;;
72105;SDS011;59975;47.646;18.318;2023-04-24T07:55:32;7.07;;;3.70;;
72105;SDS011;59975;47.646;18.318;2023-04-24T07:57:58;6.20;;;3.35;;
72105;SDS011;59975;47.646;18.318;2023-04-24T08:00:41;5.00;;;3.83;;
72105;SDS011;59975;47.646;18.318;2023-04-24T08:03:07;6.50;;;3.47;;
72105;SDS011;59975;47.646;18.318;2023-04-24T08:05:50;5.70;;;3.47;;
72105;SDS011;59975;47.646;18.318;2023-04-24T08:08:49;6.50;;;3.47;;
72105;SDS011;59975;47.646;18.318;2023-04-24T08:25:27;6.43;;;3.55;;
72105;SDS011;59975;47.646;18.318;2023-04-24T08:34:26;5.07;;;3.17;;
72105;SDS011;59975;47.646;18.318;2023-04-24T08:39:50;6.97;;;4.07;;
72105;SDS011;59975;47.646;18.318;2023-04-24T08:42:24;8.70;;;4.40;;
72105;SDS011;59975;47.646;18.318;2023-04-24T08:48:09;9.45;;;4.80;;
72105;SDS011;59975;47.646;18.318;2023-04-24T08:50:37;8.48;;;4.68;;
72105;SDS011;59975;47.646;18.318;2023-04-24T08:53:08;8.13;;;4.80;;
72105;SDS011;59975;47.646;18.318;2023-04-24T08:58:36;13.18;;;5.22;;
72105;SDS011;59975;47.646;18.318;2023-04-24T09:08:56;9.07;;;4.57;;
72105;SDS011;59975;47.646;18.318;2023-04-24T09:11:25;5.85;;;4.28;;
72105;SDS011;59975;47.646;18.318;2023-04-24T09:13:52;7.45;;;3.60;;
72105;SDS011;59975;47.646;18.318;2023-04-24T09:16:19;5.22;;;3.47;;
72105;SDS011;59975;47.646;18.318;2023-04-24T09:21:45;4.67;;;2.60;;
72105;SDS011;59975;47.646;18.318;2023-04-24T09:24:19;3.55;;;2.50;;
72105;SDS011;59975;47.646;18.318;2023-04-24T09:26:58;5.05;;;2.92;;
72105;SDS011;59975;47.646;18.318;2023-04-24T09:29:26;5.43;;;2.50;;
72105;SDS011;59975;47.646;18.318;2023-04-24T09:31:56;4.78;;;3.10;;
72105;SDS011;59975;47.646;18.318;2023-04-24T09:34:27;3.90;;;2.63;;
72105;SDS011;59975;47.646;18.318;2023-04-24T09:36:53;6.20;;;3.00;;
72105;SDS011;59975;47.646;18.318;2023-04-24T09:39:19;8.40;;;4.28;;
72105;SDS011;59975;47.646;18.318;2023-04-24T09:41:49;7.53;;;4.77;;
72105;SDS011;59975;47.646;18.318;2023-04-24T09:50:48;5.93;;;4.03;;
72105;SDS011;59975;47.646;18.318;2023-04-24T09:53:38;12.90;;;4.63;;
72105;SDS011;59975;47.646;18.318;2023-04-24T09:59:04;3.83;;;2.78;;
72105;SDS011;59975;47.646;18.318;2023-04-24T10:01:42;5.00;;;2.05;;
72105;SDS011;59975;47.646;18.318;2023-04-24T10:04:29;3.22;;;2.25;;
72105;SDS011;59975;47.646;18.318;2023-04-24T10:07:03;4.82;;;2.88;;
72105;SDS011;59975;47.646;18.318;2023-04-24T10:09:31;7.23;;;2.60;;
72105;SDS011;59975;47.646;18.318;2023-04-24T10:12:01;5.32;;;3.42;;
72105;SDS011;59975;47.646;18.318;2023-04-24T10:14:27;6.95;;;3.13;;
72105;SDS011;59975;47.646;18.318;2023-04-24T10:16:53;5.10;;;2.97;;
72105;SDS011;59975;47.646;18.318;2023-04-24T10:19:21;6.43;;;3.13;;
72105;SDS011;59975;47.646;18.318;2023-04-24T10:21:54;6.47;;;3.00;;
72105;SDS011;59975;47.646;18.318;2023-04-24T10:24:28;4.82;;;2.75;;
72105;SDS011;59975;47.646;18.318;2023-04-24T10:26:55;6.25;;;2.85;;
72105;SDS011;59975;47.646;18.318;2023-04-24T10:29:22;5.67;;;4.40;;
72105;SDS011;59975;47.646;18.318;2023-04-24T10:32:07;8.13;;;3.42;;
72105;SDS011;59975;47.646;18.318;2023-04-24T10:34:34;8.20;;;5.20;;
72105;SDS011;59975;47.646;18.318;2023-04-24T10:37:03;5.38;;;4.00;;
72105;SDS011;59975;47.646;18.318;2023-04-24T10:39:29;6.25;;;3.08;;
72105;SDS011;59975;47.646;18.318;2023-04-24T10:41:58;6.53;;;3.00;;
72105;SDS011;59975;47.646;18.318;2023-04-24T10:44:24;4.43;;;3.20;;
72105;SDS011;59975;47.646;18.318;2023-04-24T10:46:52;5.47;;;3.35;;
72105;SDS011;59975;47.646;18.318;2023-04-24T10:49:27;5.07;;;3.03;;
72105;SDS011;59975;47.646;18.318;2023-04-24T10:51:54;5.27;;;3.27;;
72105;SDS011;59975;47.646;18.318;2023-04-24T11:02:45;6.75;;;4.15;;
72105;SDS011;59975;47.646;18.318;2023-04-24T11:05:17;7.53;;;4.30;;
72105;SDS011;59975;47.646;18.318;2023-04-24T11:10:46;6.22;;;3.58;;
72105;SDS011;59975;47.646;18.318;2023-04-24T11:13:23;6.22;;;4.13;;
72105;SDS011;59975;47.646;18.318;2023-04-24T11:16:12;9.77;;;4.85;;
72105;SDS011;59975;47.646;18.318;2023-04-24T11:19:00;8.33;;;4.00;;
72105;SDS011;59975;47.646;18.318;2023-04-24T11:21:39;6.53;;;4.40;;
72105;SDS011;59975;47.646;18.318;2023-04-24T11:27:11;6.97;;;4.22;;
72105;SDS011;59975;47.646;18.318;2023-04-24T11:29:42;7.25;;;4.32;;
72105;SDS011;59975;47.646;18.318;2023-04-24T11:37:37;6.78;;;4.50;;
72105;SDS011;59975;47.646;18.318;2023-04-24T11:40:14;7.47;;;4.55;;
72105;SDS011;59975;47.646;18.318;2023-04-24T11:42:42;8.48;;;4.32;;
72105;SDS011;59975;47.646;18.318;2023-04-24T11:45:13;6.13;;;4.00;;
72105;SDS011;59975;47.646;18.318;2023-04-24T11:47:40;7.55;;;3.83;;
72105;SDS011;59975;47.646;18.318;2023-04-24T11:50:10;7.10;;;4.07;;
72105;SDS011;59975;47.646;18.318;2023-04-24T11:52:45;6.95;;;4.07;;
72105;SDS011;59975;47.646;18.318;2023-04-24T11:57:44;10.70;;;6.20;;
72105;SDS011;59975;47.646;18.318;2023-04-24T12:00:18;6.50;;;4.38;;
72105;SDS011;59975;47.646;18.318;2023-04-24T12:02:45;9.13;;;4.60;;
72105;SDS011;59975;47.646;18.318;2023-04-24T12:05:22;5.53;;;4.45;;
72105;SDS011;59975;47.646;18.318;2023-04-24T12:07:48;11.68;;;4.63;;
72105;SDS011;59975;47.646;18.318;2023-04-24T12:10:19;9.83;;;5.03;;
72105;SDS011;59975;47.646;18.318;2023-04-24T12:12:49;7.68;;;4.53;;
72105;SDS011;59975;47.646;18.318;2023-04-24T12:15:16;6.20;;;3.83;;
72105;SDS011;59975;47.646;18.318;2023-04-24T12:17:43;6.47;;;3.78;;
72105;SDS011;59975;47.646;18.318;2023-04-24T12:20:09;8.40;;;3.40;;
72105;SDS011;59975;47.646;18.318;2023-04-24T12:22:58;5.38;;;3.78;;
72105;SDS011;59975;47.646;18.318;2023-04-24T12:25:24;9.75;;;4.25;;
72105;SDS011;59975;47.646;18.318;2023-04-24T12:30:40;4.45;;;3.60;;
72105;SDS011;59975;47.646;18.318;2023-04-24T12:33:11;5.20;;;3.30;;
72105;SDS011;59975;47.646;18.318;2023-04-24T12:35:42;5.85;;;3.75;;
72105;SDS011;59975;47.646;18.318;2023-04-24T12:38:09;7.03;;;3.35;;
72105;SDS011;59975;47.646;18.318;2023-04-24T12:40:36;5.63;;;3.40;;
72105;SDS011;59975;47.646;18.318;2023-04-24T12:43:02;5.88;;;3.22;;
72105;SDS011;59975;47.646;18.318;2023-04-24T12:45:37;4.88;;;3.15;;
72105;SDS011;59975;47.646;18.318;2023-04-24T12:48:03;4.67;;;2.90;;
72105;SDS011;59975;47.646;18.318;2023-04-24T12:50:28;4.63;;;3.40;;
72105;SDS011;59975;47.646;18.318;2023-04-24T12:52:54;6.87;;;3.53;;
72105;SDS011;59975;47.646;18.318;2023-04-24T12:55:19;6.53;;;3.22;;
72105;SDS011;59975;47.646;18.318;2023-04-24T12:57:45;7.57;;;3.67;;
72105;SDS011;59975;47.646;18.318;2023-04-24T13:00:10;5.33;;;3.03;;
72105;SDS011;59975;47.646;18.318;2023-04-24T13:02:36;6.30;;;4.00;;
72105;SDS011;59975;47.646;18.318;2023-04-24T13:05:02;9.60;;;4.70;;
72105;SDS011;59975;47.646;18.318;2023-04-24T13:07:27;6.97;;;4.47;;
72105;SDS011;59975;47.646;18.318;2023-04-24T13:09:54;6.60;;;3.80;;
72105;SDS011;59975;47.646;18.318;2023-04-24T13:12:20;4.47;;;2.95;;
72105;SDS011;59975;47.646;18.318;2023-04-24T13:14:46;7.35;;;3.60;;
72105;SDS011;59975;47.646;18.318;2023-04-24T13:17:12;8.80;;;3.20;;
72105;SDS011;59975;47.646;18.318;2023-04-24T13:19:42;7.15;;;3.30;;
72105;SDS011;59975;47.646;18.318;2023-04-24T13:22:11;4.63;;;3.05;;
72105;SDS011;59975;47.646;18.318;2023-04-24T13:24:38;5.25;;;2.38;;
72105;SDS011;59975;47.646;18.318;2023-04-24T13:27:05;6.00;;;2.30;;
72105;SDS011;59975;47.646;18.318;2023-04-24T13:29:31;4.43;;;2.53;;
72105;SDS011;59975;47.646;18.318;2023-04-24T13:31:56;4.17;;;2.67;;
72105;SDS011;59975;47.646;18.318;2023-04-24T13:34:22;4.90;;;1.90;;
72105;SDS011;59975;47.646;18.318;2023-04-24T13:36:56;2.50;;;1.77;;
72105;SDS011;59975;47.646;18.318;2023-04-24T13:39:22;3.00;;;1.95;;
72105;SDS011;59975;47.646;18.318;2023-04-24T13:41:48;3.85;;;1.92;;
72105;SDS011;59975;47.646;18.318;2023-04-24T13:44:14;4.20;;;1.97;;
72105;SDS011;59975;47.646;18.318;2023-04-24T13:46:41;10.70;;;1.97;;
72105;SDS011;59975;47.646;18.318;2023-04-24T13:49:09;3.20;;;1.77;;
72105;SDS011;59975;47.646;18.318;2023-04-24T13:51:35;3.47;;;2.00;;
72105;SDS011;59975;47.646;18.318;2023-04-24T13:54:01;3.73;;;2.20;;
72105;SDS011;59975;47.646;18.318;2023-04-24T13:56:27;3.42;;;2.15;;
72105;SDS011;59975;47.646;18.318;2023-04-24T13:58:52;3.33;;;2.10;;
72105;SDS011;59975;47.646;18.318;2023-04-24T14:01:19;4.78;;;2.20;;
72105;SDS011;59975;47.646;18.318;2023-04-24T14:03:49;7.03;;;3.15;;
72105;SDS011;59975;47.646;18.318;2023-04-24T14:06:15;5.07;;;2.30;;
72105;SDS011;59975;47.646;18.318;2023-04-24T14:08:40;5.97;;;2.43;;
72105;SDS011;59975;47.646;18.318;2023-04-24T14:11:05;2.00;;;1.80;;
72105;SDS011;59975;47.646;18.318;2023-04-24T14:13:31;3.00;;;1.63;;
72105;SDS011;59975;47.646;18.318;2023-04-24T14:15:57;4.37;;;2.07;;
72105;SDS011;59975;47.646;18.318;2023-04-24T14:18:23;3.13;;;2.22;;
72105;SDS011;59975;47.646;18.318;2023-04-24T14:20:48;3.67;;;2.00;;
72105;SDS011;59975;47.646;18.318;2023-04-24T14:23:14;5.03;;;2.57;;
72105;SDS011;59975;47.646;18.318;2023-04-24T14:25:40;5.63;;;2.20;;
72105;SDS011;59975;47.646;18.318;2023-04-24T14:28:05;4.63;;;2.50;;
72105;SDS011;59975;47.646;18.318;2023-04-24T14:30:31;4.95;;;2.30;;
72105;SDS011;59975;47.646;18.318;2023-04-24T14:32:57;3.97;;;2.40;;
72105;SDS011;59975;47.646;18.318;2023-04-24T14:35:22;4.88;;;3.03;;
72105;SDS011;59975;47.646;18.318;2023-04-24T14:37:47;5.17;;;2.83;;
72105;SDS011;59975;47.646;18.318;2023-04-24T14:40:14;5.35;;;3.10;;
72105;SDS011;59975;47.646;18.318;2023-04-24T14:42:40;9.97;;;3.67;;
72105;SDS011;59975;47.646;18.318;2023-04-24T14:45:05;6.03;;;3.20;;
72105;SDS011;59975;47.646;18.318;2023-04-24T14:47:31;3.63;;;2.60;;
72105;SDS011;59975;47.646;18.318;2023-04-24T14:49:58;3.40;;;2.67;;
72105;SDS011;59975;47.646;18.318;2023-04-24T14:52:23;3.60;;;2.53;;
72105;SDS011;59975;47.646;18.318;2023-04-24T14:54:49;5.67;;;2.43;;
72105;SDS011;59975;47.646;18.318;2023-04-24T14:57:14;3.53;;;2.60;;
72105;SDS011;59975;47.646;18.318;2023-04-24T14:59:40;4.15;;;2.67;;
72105;SDS011;59975;47.646;18.318;2023-04-24T15:02:06;4.60;;;2.60;;
72105;SDS011;59975;47.646;18.318;2023-04-24T15:04:31;4.97;;;2.90;;
72105;SDS011;59975;47.646;18.318;2023-04-24T15:06:57;5.00;;;2.90;;
72105;SDS011;59975;47.646;18.318;2023-04-24T15:09:23;3.27;;;2.40;;
72105;SDS011;59975;47.646;18.318;2023-04-24T15:11:49;6.15;;;2.85;;
72105;SDS011;59975;47.646;18.318;2023-04-24T15:14:16;5.10;;;2.45;;
72105;SDS011;59975;47.646;18.318;2023-04-24T15:16:42;3.70;;;2.80;;
72105;SDS011;59975;47.646;18.318;2023-04-24T15:19:08;3.73;;;2.70;;
72105;SDS011;59975;47.646;18.318;2023-04-24T15:21:35;6.43;;;3.20;;
72105;SDS011;59975;47.646;18.318;2023-04-24T15:24:09;3.70;;;2.70;;
72105;SDS011;59975;47.646;18.318;2023-04-24T15:26:35;8.50;;;3.47;;
72105;SDS011;59975;47.646;18.318;2023-04-24T15:29:01;5.13;;;2.90;;
72105;SDS011;59975;47.646;18.318;2023-04-24T15:31:26;5.15;;;3.55;;
72105;SDS011;59975;47.646;18.318;2023-04-24T15:33:52;6.10;;;4.05;;
72105;SDS011;59975;47.646;18.318;2023-04-24T15:36:18;10.00;;;5.33;;
72105;SDS011;59975;47.646;18.318;2023-04-24T15:38:44;8.73;;;6.03;;
72105;SDS011;59975;47.646;18.318;2023-04-24T15:41:10;8.33;;;4.60;;
72105;SDS011;59975;47.646;18.318;2023-04-24T15:43:36;6.65;;;4.32;;
72105;SDS011;59975;47.646;18.318;2023-04-24T15:46:03;5.88;;;3.70;;
72105;SDS011;59975;47.646;18.318;2023-04-24T15:48:29;5.95;;;3.58;;
72105;SDS011;59975;47.646;18.318;2023-04-24T15:50:55;5.13;;;3.90;;
72105;SDS011;59975;47.646;18.318;2023-04-24T15:53:20;7.13;;;4.03;;
72105;SDS011;59975;47.646;18.318;2023-04-24T15:55:49;6.45;;;3.67;;
72105;SDS011;59975;47.646;18.318;2023-04-24T15:58:16;4.80;;;3.53;;
72105;SDS011;59975;47.646;18.318;2023-04-24T16:00:42;3.90;;;2.57;;
72105;SDS011;59975;47.646;18.318;2023-04-24T16:03:07;3.67;;;3.05;;
72105;SDS011;59975;47.646;18.318;2023-04-24T16:05:33;5.97;;;3.60;;
72105;SDS011;59975;47.646;18.318;2023-04-24T16:07:59;4.85;;;3.13;;
72105;SDS011;59975;47.646;18.318;2023-04-24T16:10:25;4.30;;;3.07;;
72105;SDS011;59975;47.646;18.318;2023-04-24T16:12:50;4.55;;;2.65;;
72105;SDS011;59975;47.646;18.318;2023-04-24T16:15:17;6.70;;;3.35;;
72105;SDS011;59975;47.646;18.318;2023-04-24T16:17:43;4.67;;;2.87;;
72105;SDS011;59975;47.646;18.318;2023-04-24T16:20:09;5.22;;;3.28;;
72105;SDS011;59975;47.646;18.318;2023-04-24T16:22:35;5.45;;;3.47;;
72105;SDS011;59975;47.646;18.318;2023-04-24T16:25:03;4.47;;;3.03;;